sensor_id;sensor_type;location;lat;lon;timestamp;P1;durP1;ratioP1;P2;durP2;ratioP2
5147;SDS011;2592;48.140;7.614;2022-12-18T00:01:43;34.47;;;23.00;;
5147;SDS011;2592;48.140;7.614;2022-12-18T00:04:14;38.00;;;22.40;;
5147;SDS011;2592;48.140;7.614;2022-12-18T00:06:41;38.27;;;22.70;;
5147;SDS011;2592;48.140;7.614;2022-12-18T00:09:08;38.10;;;24.63;;
5147;SDS011;2592;48.140;7.614;2022-12-18T00:11:34;42.00;;;24.50;;
5147;SDS011;2592;48.140;7.614;2022-12-18T00:14:01;40.10;;;24.17;;
5147;SDS011;2592;48.140;7.614;2022-12-18T00:16:28;37.30;;;23.97;;
5147;SDS011;2592;48.140;7.614;2022-12-18T00:18:57;41.70;;;24.03;;
5147;SDS011;2592;48.140;7.614;2022-12-18T00:21:24;37.87;;;24.80;;
5147;SDS011;2592;48.140;7.614;2022-12-18T00:23:51;43.33;;;25.17;;
5147;SDS011;2592;48.140;7.614;2022-12-18T00:26:18;37.43;;;23.80;;
5147;SDS011;2592;48.140;7.614;2022-12-18T00:28:45;41.07;;;24.57;;
5147;SDS011;2592;48.140;7.614;2022-12-18T00:31:12;39.50;;;24.50;;
5147;SDS011;2592;48.140;7.614;2022-12-18T00:33:40;37.13;;;24.67;;
5147;SDS011;2592;48.140;7.614;2022-12-18T00:36:07;54.53;;;26.30;;
5147;SDS011;2592;48.140;7.614;2022-12-18T00:38:35;40.20;;;24.73;;
5147;SDS011;2592;48.140;7.614;2022-12-18T00:41:01;43.60;;;25.30;;
5147;SDS011;2592;48.140;7.614;2022-12-18T00:43:28;40.30;;;23.97;;
5147;SDS011;2592;48.140;7.614;2022-12-18T00:45:53;47.57;;;26.30;;
5147;SDS011;2592;48.140;7.614;2022-12-18T00:48:19;42.43;;;24.10;;
5147;SDS011;2592;48.140;7.614;2022-12-18T00:50:48;43.67;;;25.10;;
5147;SDS011;2592;48.140;7.614;2022-12-18T00:53:14;41.50;;;23.70;;
5147;SDS011;2592;48.140;7.614;2022-12-18T00:55:41;43.60;;;25.87;;
5147;SDS011;2592;48.140;7.614;2022-12-18T00:58:08;49.77;;;29.00;;
5147;SDS011;2592;48.140;7.614;2022-12-18T01:00:34;43.93;;;26.57;;
5147;SDS011;2592;48.140;7.614;2022-12-18T01:03:01;45.83;;;25.10;;
5147;SDS011;2592;48.140;7.614;2022-12-18T01:05:27;47.07;;;26.23;;
5147;SDS011;2592;48.140;7.614;2022-12-18T01:07:55;46.13;;;26.67;;
5147;SDS011;2592;48.140;7.614;2022-12-18T01:10:22;47.20;;;27.73;;
5147;SDS011;2592;48.140;7.614;2022-12-18T01:12:49;48.60;;;26.93;;
5147;SDS011;2592;48.140;7.614;2022-12-18T01:15:15;53.00;;;29.40;;
5147;SDS011;2592;48.140;7.614;2022-12-18T01:17:42;44.47;;;25.50;;
5147;SDS011;2592;48.140;7.614;2022-12-18T01:20:09;57.60;;;28.27;;
5147;SDS011;2592;48.140;7.614;2022-12-18T01:22:36;45.97;;;26.37;;
5147;SDS011;2592;48.140;7.614;2022-12-18T01:25:04;47.03;;;26.20;;
5147;SDS011;2592;48.140;7.614;2022-12-18T01:27:32;49.30;;;26.77;;
5147;SDS011;2592;48.140;7.614;2022-12-18T01:29:59;46.07;;;27.10;;
5147;SDS011;2592;48.140;7.614;2022-12-18T01:32:25;47.70;;;26.50;;
5147;SDS011;2592;48.140;7.614;2022-12-18T01:34:51;46.57;;;26.03;;
5147;SDS011;2592;48.140;7.614;2022-12-18T01:37:18;50.73;;;27.90;;
5147;SDS011;2592;48.140;7.614;2022-12-18T01:39:44;46.83;;;27.87;;
5147;SDS011;2592;48.140;7.614;2022-12-18T01:42:13;50.83;;;29.17;;
5147;SDS011;2592;48.140;7.614;2022-12-18T01:45:03;51.30;;;28.23;;
5147;SDS011;2592;48.140;7.614;2022-12-18T01:47:32;47.00;;;26.90;;
5147;SDS011;2592;48.140;7.614;2022-12-18T01:50:00;53.83;;;29.60;;
5147;SDS011;2592;48.140;7.614;2022-12-18T01:52:28;52.17;;;28.53;;
5147;SDS011;2592;48.140;7.614;2022-12-18T01:54:55;47.80;;;27.07;;
5147;SDS011;2592;48.140;7.614;2022-12-18T01:57:23;47.00;;;25.50;;
5147;SDS011;2592;48.140;7.614;2022-12-18T01:59:50;45.80;;;26.77;;
5147;SDS011;2592;48.140;7.614;2022-12-18T02:02:18;148.37;;;79.07;;
5147;SDS011;2592;48.140;7.614;2022-12-18T02:04:45;346.23;;;174.00;;
5147;SDS011;2592;48.140;7.614;2022-12-18T02:07:13;67.80;;;34.73;;
5147;SDS011;2592;48.140;7.614;2022-12-18T02:09:43;75.80;;;37.33;;
5147;SDS011;2592;48.140;7.614;2022-12-18T02:12:13;69.33;;;35.73;;
5147;SDS011;2592;48.140;7.614;2022-12-18T02:14:44;105.03;;;52.60;;
5147;SDS011;2592;48.140;7.614;2022-12-18T02:17:15;120.03;;;58.67;;
5147;SDS011;2592;48.140;7.614;2022-12-18T02:19:45;226.37;;;104.93;;
5147;SDS011;2592;48.140;7.614;2022-12-18T02:22:20;291.17;;;127.03;;
5147;SDS011;2592;48.140;7.614;2022-12-18T02:24:54;328.70;;;142.93;;
5147;SDS011;2592;48.140;7.614;2022-12-18T02:27:27;157.63;;;78.70;;
5147;SDS011;2592;48.140;7.614;2022-12-18T02:29:54;358.23;;;161.77;;
5147;SDS011;2592;48.140;7.614;2022-12-18T02:32:23;137.13;;;70.17;;
5147;SDS011;2592;48.140;7.614;2022-12-18T02:34:51;70.53;;;38.70;;
5147;SDS011;2592;48.140;7.614;2022-12-18T02:37:19;89.33;;;46.40;;
5147;SDS011;2592;48.140;7.614;2022-12-18T02:39:46;141.73;;;66.77;;
5147;SDS011;2592;48.140;7.614;2022-12-18T02:42:13;201.57;;;100.77;;
5147;SDS011;2592;48.140;7.614;2022-12-18T02:44:44;103.90;;;58.43;;
5147;SDS011;2592;48.140;7.614;2022-12-18T02:47:12;71.23;;;40.90;;
5147;SDS011;2592;48.140;7.614;2022-12-18T02:49:40;91.17;;;47.60;;
5147;SDS011;2592;48.140;7.614;2022-12-18T02:52:13;71.93;;;39.77;;
5147;SDS011;2592;48.140;7.614;2022-12-18T02:54:47;62.47;;;31.70;;
5147;SDS011;2592;48.140;7.614;2022-12-18T02:57:18;55.67;;;30.17;;
5147;SDS011;2592;48.140;7.614;2022-12-18T02:59:49;51.73;;;28.03;;
5147;SDS011;2592;48.140;7.614;2022-12-18T03:02:21;61.77;;;30.10;;
5147;SDS011;2592;48.140;7.614;2022-12-18T03:04:50;59.17;;;31.20;;
5147;SDS011;2592;48.140;7.614;2022-12-18T03:07:20;61.20;;;30.17;;
5147;SDS011;2592;48.140;7.614;2022-12-18T03:09:48;60.00;;;31.23;;
5147;SDS011;2592;48.140;7.614;2022-12-18T03:12:17;51.33;;;27.70;;
5147;SDS011;2592;48.140;7.614;2022-12-18T03:14:53;44.83;;;27.00;;
5147;SDS011;2592;48.140;7.614;2022-12-18T03:17:20;49.10;;;28.67;;
5147;SDS011;2592;48.140;7.614;2022-12-18T03:19:48;61.83;;;33.10;;
5147;SDS011;2592;48.140;7.614;2022-12-18T03:22:15;62.93;;;33.37;;
5147;SDS011;2592;48.140;7.614;2022-12-18T03:24:42;53.93;;;27.77;;
5147;SDS011;2592;48.140;7.614;2022-12-18T03:27:10;49.10;;;26.03;;
5147;SDS011;2592;48.140;7.614;2022-12-18T03:29:39;55.60;;;31.83;;
5147;SDS011;2592;48.140;7.614;2022-12-18T03:32:09;79.10;;;42.00;;
5147;SDS011;2592;48.140;7.614;2022-12-18T03:34:37;62.47;;;35.23;;
5147;SDS011;2592;48.140;7.614;2022-12-18T03:37:04;65.70;;;34.77;;
5147;SDS011;2592;48.140;7.614;2022-12-18T03:39:31;67.60;;;36.30;;
5147;SDS011;2592;48.140;7.614;2022-12-18T03:41:58;60.20;;;32.67;;
5147;SDS011;2592;48.140;7.614;2022-12-18T03:44:28;48.80;;;26.50;;
5147;SDS011;2592;48.140;7.614;2022-12-18T03:46:58;66.50;;;34.83;;
5147;SDS011;2592;48.140;7.614;2022-12-18T03:49:27;61.20;;;36.20;;
5147;SDS011;2592;48.140;7.614;2022-12-18T03:52:01;56.43;;;31.03;;
5147;SDS011;2592;48.140;7.614;2022-12-18T03:54:29;54.33;;;29.07;;
5147;SDS011;2592;48.140;7.614;2022-12-18T03:56:58;50.00;;;27.10;;
5147;SDS011;2592;48.140;7.614;2022-12-18T03:59:25;54.00;;;27.33;;
5147;SDS011;2592;48.140;7.614;2022-12-18T04:01:52;54.90;;;29.40;;
5147;SDS011;2592;48.140;7.614;2022-12-18T04:04:20;55.17;;;29.00;;
5147;SDS011;2592;48.140;7.614;2022-12-18T04:06:49;52.53;;;27.87;;
5147;SDS011;2592;48.140;7.614;2022-12-18T04:09:16;45.97;;;26.53;;
5147;SDS011;2592;48.140;7.614;2022-12-18T04:11:42;47.60;;;27.00;;
5147;SDS011;2592;48.140;7.614;2022-12-18T04:14:09;51.40;;;28.70;;
5147;SDS011;2592;48.140;7.614;2022-12-18T04:16:36;50.40;;;30.47;;
5147;SDS011;2592;48.140;7.614;2022-12-18T04:19:02;47.83;;;27.20;;
5147;SDS011;2592;48.140;7.614;2022-12-18T04:21:29;43.67;;;25.60;;
5147;SDS011;2592;48.140;7.614;2022-12-18T04:23:56;40.80;;;24.00;;
5147;SDS011;2592;48.140;7.614;2022-12-18T04:26:23;42.57;;;23.13;;
5147;SDS011;2592;48.140;7.614;2022-12-18T04:28:49;49.70;;;26.83;;
5147;SDS011;2592;48.140;7.614;2022-12-18T04:31:15;41.53;;;21.87;;
5147;SDS011;2592;48.140;7.614;2022-12-18T04:33:42;44.83;;;23.33;;
5147;SDS011;2592;48.140;7.614;2022-12-18T04:36:08;46.40;;;24.47;;
5147;SDS011;2592;48.140;7.614;2022-12-18T04:38:37;47.87;;;26.67;;
5147;SDS011;2592;48.140;7.614;2022-12-18T04:41:05;41.57;;;24.53;;
5147;SDS011;2592;48.140;7.614;2022-12-18T04:43:31;49.43;;;26.20;;
5147;SDS011;2592;48.140;7.614;2022-12-18T04:46:01;64.47;;;37.03;;
5147;SDS011;2592;48.140;7.614;2022-12-18T04:48:27;122.43;;;65.97;;
5147;SDS011;2592;48.140;7.614;2022-12-18T04:50:54;70.90;;;38.07;;
5147;SDS011;2592;48.140;7.614;2022-12-18T04:53:20;66.90;;;34.10;;
5147;SDS011;2592;48.140;7.614;2022-12-18T04:55:46;229.97;;;107.00;;
5147;SDS011;2592;48.140;7.614;2022-12-18T04:58:14;166.10;;;77.33;;
5147;SDS011;2592;48.140;7.614;2022-12-18T05:00:40;151.77;;;71.07;;
5147;SDS011;2592;48.140;7.614;2022-12-18T05:03:07;57.67;;;25.00;;
5147;SDS011;2592;48.140;7.614;2022-12-18T05:05:34;31.60;;;19.23;;
5147;SDS011;2592;48.140;7.614;2022-12-18T05:08:00;46.30;;;21.77;;
5147;SDS011;2592;48.140;7.614;2022-12-18T05:10:27;53.23;;;22.70;;
5147;SDS011;2592;48.140;7.614;2022-12-18T05:12:53;39.87;;;19.53;;
5147;SDS011;2592;48.140;7.614;2022-12-18T05:15:28;26.47;;;18.53;;
5147;SDS011;2592;48.140;7.614;2022-12-18T05:17:55;39.90;;;22.13;;
5147;SDS011;2592;48.140;7.614;2022-12-18T05:20:21;34.10;;;21.17;;
5147;SDS011;2592;48.140;7.614;2022-12-18T05:22:47;38.63;;;22.70;;
5147;SDS011;2592;48.140;7.614;2022-12-18T05:25:14;35.87;;;20.93;;
5147;SDS011;2592;48.140;7.614;2022-12-18T05:27:41;37.47;;;22.20;;
5147;SDS011;2592;48.140;7.614;2022-12-18T05:30:08;48.43;;;23.73;;
5147;SDS011;2592;48.140;7.614;2022-12-18T05:32:35;41.17;;;21.30;;
5147;SDS011;2592;48.140;7.614;2022-12-18T05:35:02;37.63;;;23.30;;
5147;SDS011;2592;48.140;7.614;2022-12-18T05:37:29;37.73;;;21.90;;
5147;SDS011;2592;48.140;7.614;2022-12-18T05:39:55;36.93;;;21.73;;
5147;SDS011;2592;48.140;7.614;2022-12-18T05:42:21;39.47;;;23.10;;
5147;SDS011;2592;48.140;7.614;2022-12-18T05:44:48;51.87;;;26.80;;
5147;SDS011;2592;48.140;7.614;2022-12-18T05:47:14;39.43;;;24.03;;
5147;SDS011;2592;48.140;7.614;2022-12-18T05:49:42;42.97;;;20.30;;
5147;SDS011;2592;48.140;7.614;2022-12-18T05:52:08;34.27;;;21.80;;
5147;SDS011;2592;48.140;7.614;2022-12-18T05:54:34;32.70;;;20.63;;
5147;SDS011;2592;48.140;7.614;2022-12-18T05:57:01;38.00;;;24.30;;
5147;SDS011;2592;48.140;7.614;2022-12-18T05:59:27;38.17;;;23.80;;
5147;SDS011;2592;48.140;7.614;2022-12-18T06:01:54;42.70;;;22.40;;
5147;SDS011;2592;48.140;7.614;2022-12-18T06:04:20;43.67;;;26.10;;
5147;SDS011;2592;48.140;7.614;2022-12-18T06:06:48;42.50;;;27.60;;
5147;SDS011;2592;48.140;7.614;2022-12-18T06:09:14;37.03;;;21.93;;
5147;SDS011;2592;48.140;7.614;2022-12-18T06:11:40;40.10;;;23.90;;
5147;SDS011;2592;48.140;7.614;2022-12-18T06:14:07;33.73;;;21.43;;
5147;SDS011;2592;48.140;7.614;2022-12-18T06:16:33;31.57;;;20.93;;
5147;SDS011;2592;48.140;7.614;2022-12-18T06:19:00;33.53;;;22.10;;
5147;SDS011;2592;48.140;7.614;2022-12-18T06:21:27;40.27;;;21.63;;
5147;SDS011;2592;48.140;7.614;2022-12-18T06:23:54;27.20;;;18.63;;
5147;SDS011;2592;48.140;7.614;2022-12-18T06:26:21;30.90;;;19.23;;
5147;SDS011;2592;48.140;7.614;2022-12-18T06:28:47;26.87;;;18.63;;
5147;SDS011;2592;48.140;7.614;2022-12-18T06:31:14;31.93;;;19.43;;
5147;SDS011;2592;48.140;7.614;2022-12-18T06:33:40;31.27;;;20.23;;
5147;SDS011;2592;48.140;7.614;2022-12-18T06:36:08;28.60;;;18.90;;
5147;SDS011;2592;48.140;7.614;2022-12-18T06:38:35;29.60;;;18.93;;
5147;SDS011;2592;48.140;7.614;2022-12-18T06:41:07;34.17;;;21.63;;
5147;SDS011;2592;48.140;7.614;2022-12-18T06:43:34;28.63;;;18.70;;
5147;SDS011;2592;48.140;7.614;2022-12-18T06:46:01;34.10;;;20.97;;
5147;SDS011;2592;48.140;7.614;2022-12-18T06:48:27;38.90;;;19.87;;
5147;SDS011;2592;48.140;7.614;2022-12-18T06:50:54;35.00;;;20.90;;
5147;SDS011;2592;48.140;7.614;2022-12-18T06:53:20;31.03;;;20.53;;
5147;SDS011;2592;48.140;7.614;2022-12-18T06:55:46;36.83;;;23.73;;
5147;SDS011;2592;48.140;7.614;2022-12-18T06:58:14;36.63;;;21.17;;
5147;SDS011;2592;48.140;7.614;2022-12-18T07:00:41;103.90;;;49.17;;
5147;SDS011;2592;48.140;7.614;2022-12-18T07:03:07;60.33;;;30.60;;
5147;SDS011;2592;48.140;7.614;2022-12-18T07:05:33;29.77;;;17.63;;
5147;SDS011;2592;48.140;7.614;2022-12-18T07:08:00;40.20;;;24.53;;
5147;SDS011;2592;48.140;7.614;2022-12-18T07:10:26;39.47;;;25.30;;
5147;SDS011;2592;48.140;7.614;2022-12-18T07:12:52;72.77;;;39.93;;
5147;SDS011;2592;48.140;7.614;2022-12-18T07:15:20;45.53;;;29.23;;
5147;SDS011;2592;48.140;7.614;2022-12-18T07:17:47;39.73;;;23.23;;
5147;SDS011;2592;48.140;7.614;2022-12-18T07:20:13;31.93;;;21.57;;
5147;SDS011;2592;48.140;7.614;2022-12-18T07:22:39;41.43;;;23.20;;
5147;SDS011;2592;48.140;7.614;2022-12-18T07:25:06;32.23;;;20.97;;
5147;SDS011;2592;48.140;7.614;2022-12-18T07:27:33;38.27;;;24.10;;
5147;SDS011;2592;48.140;7.614;2022-12-18T07:30:00;33.67;;;20.43;;
5147;SDS011;2592;48.140;7.614;2022-12-18T07:32:27;27.30;;;18.60;;
5147;SDS011;2592;48.140;7.614;2022-12-18T07:34:54;33.10;;;20.47;;
5147;SDS011;2592;48.140;7.614;2022-12-18T07:37:20;39.07;;;21.60;;
5147;SDS011;2592;48.140;7.614;2022-12-18T07:39:46;31.00;;;20.70;;
5147;SDS011;2592;48.140;7.614;2022-12-18T07:42:13;36.00;;;22.60;;
5147;SDS011;2592;48.140;7.614;2022-12-18T07:44:57;32.73;;;21.83;;
5147;SDS011;2592;48.140;7.614;2022-12-18T07:47:23;51.23;;;29.63;;
5147;SDS011;2592;48.140;7.614;2022-12-18T07:49:51;54.80;;;31.23;;
5147;SDS011;2592;48.140;7.614;2022-12-18T07:52:18;48.40;;;28.67;;
5147;SDS011;2592;48.140;7.614;2022-12-18T07:54:44;37.27;;;24.73;;
5147;SDS011;2592;48.140;7.614;2022-12-18T07:57:10;55.13;;;30.50;;
5147;SDS011;2592;48.140;7.614;2022-12-18T07:59:37;36.63;;;22.13;;
5147;SDS011;2592;48.140;7.614;2022-12-18T08:02:03;58.67;;;29.40;;
5147;SDS011;2592;48.140;7.614;2022-12-18T08:04:30;76.83;;;42.70;;
5147;SDS011;2592;48.140;7.614;2022-12-18T08:06:57;46.70;;;29.77;;
5147;SDS011;2592;48.140;7.614;2022-12-18T08:09:24;54.33;;;24.40;;
5147;SDS011;2592;48.140;7.614;2022-12-18T08:11:50;36.63;;;22.70;;
5147;SDS011;2592;48.140;7.614;2022-12-18T08:14:17;30.07;;;19.60;;
5147;SDS011;2592;48.140;7.614;2022-12-18T08:16:43;32.70;;;22.40;;
5147;SDS011;2592;48.140;7.614;2022-12-18T08:19:09;37.00;;;24.40;;
5147;SDS011;2592;48.140;7.614;2022-12-18T08:21:36;36.40;;;23.47;;
5147;SDS011;2592;48.140;7.614;2022-12-18T08:24:04;40.00;;;25.27;;
5147;SDS011;2592;48.140;7.614;2022-12-18T08:26:31;28.53;;;19.90;;
5147;SDS011;2592;48.140;7.614;2022-12-18T08:28:58;37.13;;;25.33;;
5147;SDS011;2592;48.140;7.614;2022-12-18T08:31:25;74.17;;;47.13;;
5147;SDS011;2592;48.140;7.614;2022-12-18T08:33:52;56.67;;;41.43;;
5147;SDS011;2592;48.140;7.614;2022-12-18T08:36:19;42.57;;;31.43;;
5147;SDS011;2592;48.140;7.614;2022-12-18T08:38:45;43.40;;;30.00;;
5147;SDS011;2592;48.140;7.614;2022-12-18T08:41:14;35.70;;;26.70;;
5147;SDS011;2592;48.140;7.614;2022-12-18T08:43:41;33.53;;;23.23;;
5147;SDS011;2592;48.140;7.614;2022-12-18T08:46:25;69.97;;;50.50;;
5147;SDS011;2592;48.140;7.614;2022-12-18T08:48:52;44.77;;;28.03;;
5147;SDS011;2592;48.140;7.614;2022-12-18T08:51:19;41.57;;;30.33;;
5147;SDS011;2592;48.140;7.614;2022-12-18T08:53:45;33.60;;;22.83;;
5147;SDS011;2592;48.140;7.614;2022-12-18T08:56:13;41.33;;;28.47;;
5147;SDS011;2592;48.140;7.614;2022-12-18T08:58:40;36.00;;;26.27;;
5147;SDS011;2592;48.140;7.614;2022-12-18T09:01:06;36.43;;;25.10;;
5147;SDS011;2592;48.140;7.614;2022-12-18T09:03:33;41.97;;;27.50;;
5147;SDS011;2592;48.140;7.614;2022-12-18T09:06:00;48.37;;;35.77;;
5147;SDS011;2592;48.140;7.614;2022-12-18T09:08:26;39.07;;;28.27;;
5147;SDS011;2592;48.140;7.614;2022-12-18T09:10:53;42.00;;;29.77;;
5147;SDS011;2592;48.140;7.614;2022-12-18T09:13:21;43.70;;;31.27;;
5147;SDS011;2592;48.140;7.614;2022-12-18T09:15:48;41.40;;;28.20;;
5147;SDS011;2592;48.140;7.614;2022-12-18T09:18:16;43.10;;;30.83;;
5147;SDS011;2592;48.140;7.614;2022-12-18T09:20:43;42.50;;;30.50;;
5147;SDS011;2592;48.140;7.614;2022-12-18T09:23:09;36.10;;;25.80;;
5147;SDS011;2592;48.140;7.614;2022-12-18T09:25:36;33.67;;;23.90;;
5147;SDS011;2592;48.140;7.614;2022-12-18T09:28:03;36.30;;;26.40;;
5147;SDS011;2592;48.140;7.614;2022-12-18T09:30:31;38.63;;;24.33;;
5147;SDS011;2592;48.140;7.614;2022-12-18T09:32:59;33.10;;;24.00;;
5147;SDS011;2592;48.140;7.614;2022-12-18T09:35:25;35.37;;;24.53;;
5147;SDS011;2592;48.140;7.614;2022-12-18T09:37:52;30.73;;;22.33;;
5147;SDS011;2592;48.140;7.614;2022-12-18T09:40:19;36.57;;;25.57;;
5147;SDS011;2592;48.140;7.614;2022-12-18T09:42:48;34.97;;;24.40;;
5147;SDS011;2592;48.140;7.614;2022-12-18T09:45:18;40.03;;;27.07;;
5147;SDS011;2592;48.140;7.614;2022-12-18T09:47:46;32.43;;;23.30;;
5147;SDS011;2592;48.140;7.614;2022-12-18T09:50:17;31.83;;;23.80;;
5147;SDS011;2592;48.140;7.614;2022-12-18T09:52:47;31.00;;;22.80;;
5147;SDS011;2592;48.140;7.614;2022-12-18T09:55:16;39.00;;;28.37;;
5147;SDS011;2592;48.140;7.614;2022-12-18T09:57:47;44.97;;;34.20;;
5147;SDS011;2592;48.140;7.614;2022-12-18T10:00:15;46.10;;;34.97;;
5147;SDS011;2592;48.140;7.614;2022-12-18T10:05:11;40.73;;;29.90;;
5147;SDS011;2592;48.140;7.614;2022-12-18T10:07:48;48.13;;;35.87;;
5147;SDS011;2592;48.140;7.614;2022-12-18T10:10:19;52.07;;;35.47;;
5147;SDS011;2592;48.140;7.614;2022-12-18T10:12:49;37.30;;;27.37;;
5147;SDS011;2592;48.140;7.614;2022-12-18T10:15:19;34.50;;;25.13;;
5147;SDS011;2592;48.140;7.614;2022-12-18T10:17:48;39.80;;;27.33;;
5147;SDS011;2592;48.140;7.614;2022-12-18T10:20:18;38.20;;;25.63;;
5147;SDS011;2592;48.140;7.614;2022-12-18T10:22:49;35.67;;;23.03;;
5147;SDS011;2592;48.140;7.614;2022-12-18T10:25:20;36.60;;;25.97;;
5147;SDS011;2592;48.140;7.614;2022-12-18T10:27:47;37.07;;;25.43;;
5147;SDS011;2592;48.140;7.614;2022-12-18T10:30:16;34.97;;;24.00;;
5147;SDS011;2592;48.140;7.614;2022-12-18T10:32:42;29.97;;;22.77;;
5147;SDS011;2592;48.140;7.614;2022-12-18T10:35:11;35.70;;;25.00;;
5147;SDS011;2592;48.140;7.614;2022-12-18T10:37:58;89.93;;;49.10;;
5147;SDS011;2592;48.140;7.614;2022-12-18T10:40:25;40.27;;;25.77;;
5147;SDS011;2592;48.140;7.614;2022-12-18T10:43:02;30.87;;;23.03;;
5147;SDS011;2592;48.140;7.614;2022-12-18T10:45:29;33.20;;;22.73;;
5147;SDS011;2592;48.140;7.614;2022-12-18T10:47:55;33.50;;;22.77;;
5147;SDS011;2592;48.140;7.614;2022-12-18T10:50:24;31.03;;;22.77;;
5147;SDS011;2592;48.140;7.614;2022-12-18T10:52:55;31.37;;;22.97;;
5147;SDS011;2592;48.140;7.614;2022-12-18T10:55:23;37.93;;;24.70;;
5147;SDS011;2592;48.140;7.614;2022-12-18T10:57:50;45.93;;;26.80;;
5147;SDS011;2592;48.140;7.614;2022-12-18T11:00:21;42.97;;;26.67;;
5147;SDS011;2592;48.140;7.614;2022-12-18T11:02:48;49.50;;;29.20;;
5147;SDS011;2592;48.140;7.614;2022-12-18T11:05:26;47.53;;;29.13;;
5147;SDS011;2592;48.140;7.614;2022-12-18T11:07:52;48.43;;;27.60;;
5147;SDS011;2592;48.140;7.614;2022-12-18T11:10:21;45.07;;;29.00;;
5147;SDS011;2592;48.140;7.614;2022-12-18T11:12:48;45.57;;;28.10;;
5147;SDS011;2592;48.140;7.614;2022-12-18T11:15:15;47.97;;;29.10;;
5147;SDS011;2592;48.140;7.614;2022-12-18T11:17:42;45.27;;;29.23;;
5147;SDS011;2592;48.140;7.614;2022-12-18T11:20:19;50.70;;;28.03;;
5147;SDS011;2592;48.140;7.614;2022-12-18T11:22:53;48.57;;;29.53;;
5147;SDS011;2592;48.140;7.614;2022-12-18T11:25:22;46.33;;;28.90;;
5147;SDS011;2592;48.140;7.614;2022-12-18T11:27:48;46.80;;;29.47;;
5147;SDS011;2592;48.140;7.614;2022-12-18T11:30:20;45.93;;;27.17;;
5147;SDS011;2592;48.140;7.614;2022-12-18T11:32:47;46.53;;;27.90;;
5147;SDS011;2592;48.140;7.614;2022-12-18T11:35:16;39.43;;;25.80;;
5147;SDS011;2592;48.140;7.614;2022-12-18T11:37:45;49.50;;;31.37;;
5147;SDS011;2592;48.140;7.614;2022-12-18T11:40:14;43.27;;;28.80;;
5147;SDS011;2592;48.140;7.614;2022-12-18T11:42:44;46.90;;;30.77;;
5147;SDS011;2592;48.140;7.614;2022-12-18T11:45:21;47.37;;;32.97;;
5147;SDS011;2592;48.140;7.614;2022-12-18T11:47:51;48.77;;;31.57;;
5147;SDS011;2592;48.140;7.614;2022-12-18T11:50:19;44.17;;;29.10;;
5147;SDS011;2592;48.140;7.614;2022-12-18T11:52:47;47.27;;;29.67;;
5147;SDS011;2592;48.140;7.614;2022-12-18T11:55:14;47.50;;;31.40;;
5147;SDS011;2592;48.140;7.614;2022-12-18T11:57:44;43.27;;;29.87;;
5147;SDS011;2592;48.140;7.614;2022-12-18T12:02:47;43.30;;;28.90;;
5147;SDS011;2592;48.140;7.614;2022-12-18T12:05:21;43.00;;;29.70;;
5147;SDS011;2592;48.140;7.614;2022-12-18T12:07:52;46.43;;;29.80;;
5147;SDS011;2592;48.140;7.614;2022-12-18T12:10:25;47.67;;;32.17;;
5147;SDS011;2592;48.140;7.614;2022-12-18T12:13:01;47.03;;;29.97;;
5147;SDS011;2592;48.140;7.614;2022-12-18T12:15:32;45.63;;;29.90;;
5147;SDS011;2592;48.140;7.614;2022-12-18T12:18:05;41.57;;;28.93;;
5147;SDS011;2592;48.140;7.614;2022-12-18T12:20:37;43.23;;;27.63;;
5147;SDS011;2592;48.140;7.614;2022-12-18T12:23:09;41.47;;;28.50;;
5147;SDS011;2592;48.140;7.614;2022-12-18T12:25:42;37.77;;;27.17;;
5147;SDS011;2592;48.140;7.614;2022-12-18T12:28:15;42.43;;;29.53;;
5147;SDS011;2592;48.140;7.614;2022-12-18T12:30:49;41.17;;;28.00;;
5147;SDS011;2592;48.140;7.614;2022-12-18T12:33:22;44.47;;;28.90;;
5147;SDS011;2592;48.140;7.614;2022-12-18T12:35:56;41.43;;;28.50;;
5147;SDS011;2592;48.140;7.614;2022-12-18T12:38:25;43.80;;;29.53;;
5147;SDS011;2592;48.140;7.614;2022-12-18T12:40:54;43.73;;;28.10;;
5147;SDS011;2592;48.140;7.614;2022-12-18T12:43:27;39.50;;;26.73;;
5147;SDS011;2592;48.140;7.614;2022-12-18T12:45:54;43.57;;;29.37;;
5147;SDS011;2592;48.140;7.614;2022-12-18T12:48:27;33.63;;;23.80;;
5147;SDS011;2592;48.140;7.614;2022-12-18T12:50:56;34.80;;;23.67;;
5147;SDS011;2592;48.140;7.614;2022-12-18T12:53:25;34.80;;;23.13;;
5147;SDS011;2592;48.140;7.614;2022-12-18T12:55:52;42.50;;;26.20;;
5147;SDS011;2592;48.140;7.614;2022-12-18T12:58:22;41.70;;;27.30;;
5147;SDS011;2592;48.140;7.614;2022-12-18T13:00:53;37.10;;;25.50;;
5147;SDS011;2592;48.140;7.614;2022-12-18T13:03:23;37.47;;;25.10;;
5147;SDS011;2592;48.140;7.614;2022-12-18T13:05:51;41.43;;;26.70;;
5147;SDS011;2592;48.140;7.614;2022-12-18T13:08:22;40.47;;;27.57;;
5147;SDS011;2592;48.140;7.614;2022-12-18T13:10:50;37.97;;;25.73;;
5147;SDS011;2592;48.140;7.614;2022-12-18T13:13:47;45.37;;;28.47;;
5147;SDS011;2592;48.140;7.614;2022-12-18T13:16:14;43.60;;;30.53;;
5147;SDS011;2592;48.140;7.614;2022-12-18T13:18:48;92.60;;;47.17;;
5147;SDS011;2592;48.140;7.614;2022-12-18T13:21:17;39.20;;;27.30;;
5147;SDS011;2592;48.140;7.614;2022-12-18T13:23:44;35.70;;;24.77;;
5147;SDS011;2592;48.140;7.614;2022-12-18T13:26:30;39.93;;;26.87;;
5147;SDS011;2592;48.140;7.614;2022-12-18T13:28:58;39.73;;;26.00;;
5147;SDS011;2592;48.140;7.614;2022-12-18T13:34:14;42.47;;;29.80;;
5147;SDS011;2592;48.140;7.614;2022-12-18T13:36:41;40.77;;;27.53;;
5147;SDS011;2592;48.140;7.614;2022-12-18T13:39:21;42.80;;;28.47;;
5147;SDS011;2592;48.140;7.614;2022-12-18T13:41:48;40.63;;;28.13;;
5147;SDS011;2592;48.140;7.614;2022-12-18T13:44:20;45.90;;;30.10;;
5147;SDS011;2592;48.140;7.614;2022-12-18T13:46:49;44.13;;;28.30;;
5147;SDS011;2592;48.140;7.614;2022-12-18T13:49:20;44.27;;;29.30;;
5147;SDS011;2592;48.140;7.614;2022-12-18T13:51:48;38.23;;;26.30;;
5147;SDS011;2592;48.140;7.614;2022-12-18T13:54:17;39.97;;;27.47;;
5147;SDS011;2592;48.140;7.614;2022-12-18T13:56:45;43.47;;;28.60;;
5147;SDS011;2592;48.140;7.614;2022-12-18T13:59:13;40.93;;;27.40;;
5147;SDS011;2592;48.140;7.614;2022-12-18T14:01:44;41.80;;;28.10;;
5147;SDS011;2592;48.140;7.614;2022-12-18T14:04:11;41.77;;;29.27;;
5147;SDS011;2592;48.140;7.614;2022-12-18T14:06:39;44.43;;;29.30;;
5147;SDS011;2592;48.140;7.614;2022-12-18T14:09:09;60.00;;;39.10;;
5147;SDS011;2592;48.140;7.614;2022-12-18T14:11:36;43.03;;;28.47;;
5147;SDS011;2592;48.140;7.614;2022-12-18T14:14:03;41.90;;;27.13;;
5147;SDS011;2592;48.140;7.614;2022-12-18T14:16:32;38.10;;;26.63;;
5147;SDS011;2592;48.140;7.614;2022-12-18T14:18:59;43.40;;;28.53;;
5147;SDS011;2592;48.140;7.614;2022-12-18T14:21:26;47.63;;;31.17;;
5147;SDS011;2592;48.140;7.614;2022-12-18T14:24:12;42.97;;;29.80;;
5147;SDS011;2592;48.140;7.614;2022-12-18T14:26:39;47.87;;;29.93;;
5147;SDS011;2592;48.140;7.614;2022-12-18T14:29:18;51.63;;;35.80;;
5147;SDS011;2592;48.140;7.614;2022-12-18T14:31:44;42.17;;;29.70;;
5147;SDS011;2592;48.140;7.614;2022-12-18T14:34:14;37.93;;;27.47;;
5147;SDS011;2592;48.140;7.614;2022-12-18T14:36:40;46.07;;;30.30;;
5147;SDS011;2592;48.140;7.614;2022-12-18T14:39:11;48.50;;;33.30;;
5147;SDS011;2592;48.140;7.614;2022-12-18T14:41:42;51.17;;;33.70;;
5147;SDS011;2592;48.140;7.614;2022-12-18T14:44:11;46.47;;;31.13;;
5147;SDS011;2592;48.140;7.614;2022-12-18T14:46:38;47.77;;;30.90;;
5147;SDS011;2592;48.140;7.614;2022-12-18T14:49:17;72.80;;;43.47;;
5147;SDS011;2592;48.140;7.614;2022-12-18T14:51:47;55.47;;;37.20;;
5147;SDS011;2592;48.140;7.614;2022-12-18T14:54:16;52.83;;;35.20;;
5147;SDS011;2592;48.140;7.614;2022-12-18T14:56:43;47.73;;;31.73;;
5147;SDS011;2592;48.140;7.614;2022-12-18T14:59:12;50.87;;;33.43;;
5147;SDS011;2592;48.140;7.614;2022-12-18T15:01:44;46.77;;;31.20;;
5147;SDS011;2592;48.140;7.614;2022-12-18T15:04:21;55.17;;;35.60;;